Weather observations for the past three days for
Hill City, Hill City Municipal Airport
Imperial (Metric)
Date Time (cdt) Wind (mph) Vis. (mi.) Weather Sky Cond. Temperature (ºF) Relative Humidity Wind Chill (°F) Heat Index (°F) Pressure Precipitation (in)
Air Dwpt 6 hour altimeter (in) sea level (mb) 1 hr 3 hr 6 hr
Max. Min.
04 19:53 E 18 5.00 A Few Clouds with Haze FEW002 68 48 49% 29.65 1002.8
04 18:53 E 10 G 18 10.00 Light Rain SCT080 OVC100 70 48.9 86 70 47% 29.64 1002.8
04 17:53 Vrbl 5 10.00 Mostly Cloudy FEW055 FEW080 BKN110 80.1 36 20% 79 29.61 1001.4
04 16:53 S 8 10.00 Fair CLR 82.9 34 17% 80 29.6 1000.7
04 15:53 SE 9 10.00 Fair CLR 84.9 34 16% 82 29.61 1000.9
04 14:53 Calm 10.00 Fair CLR 82 33.1 17% 80 29.63 1001.5
04 13:53 Vrbl 7 G 17 10.00 Fair CLR 82.9 33.1 17% 80 29.65 1001.9
04 12:53 Vrbl 3 10.00 Fair CLR 81 33.1 82 44.1 18% 79 29.67 1002.8
04 11:53 NE 7 10.00 Fair CLR 80.1 37 21% 79 29.67 1002.9
04 10:53 NE 6 10.00 Fair CLR 75 42.1 31% 77 29.68 1003.6
04 09:53 Vrbl 5 10.00 Fair CLR 70 41 35% 29.68 1003.6
04 07:53 N 15 10.00 Fair CLR 53.1 39.9 61% 29.69 1003.8
04 06:53 W 9 10.00 Fair CLR 44.1 37 57 42.1 76% 40 29.65 1002.8
04 05:53 W 5 10.00 Fair CLR 44.1 37 76% 42 29.65 1002.9
04 04:53 W 5 10.00 Fair CLR 46 37.9 73% 44 29.67 1003.1
04 03:53 Calm 10.00 Fair CLR 48 39.9 74% 29.69 1003.7
04 02:53 Calm 10.00 Fair CLR 53.1 41 64% 29.7 1004.0
04 01:53 NE 6 10.00 Fair CLR 55.9 39.9 55% 29.71 1004.4
04 00:53 Calm 10.00 Fair CLR 54 39 79 53.1 57% 29.72 1004.9
03 23:53 NE 9 10.00 Fair CLR 55.9 41 57% 29.74 1005.5
03 22:53 E 7 10.00 Fair CLR 55 39 55% 29.75 1006.1
03 21:53 E 5 10.00 Fair CLR 61 39.9 46% 29.76 1006.3
03 20:53 E 7 10.00 Fair CLR 66 39 37% 29.76 1006.4
03 19:53 E 10 10.00 Fair CLR 73.9 37 26% 29.76 1006.3
03 18:53 E 10 10.00 Fair CLR 78.1 34 82 77 20% 77 29.76 1006.2
03 17:53 E 8 10.00 Fair CLR 79 33.1 19% 78 29.76 1006.3
03 16:53 E 9 10.00 Fair CLR 81 33.1 18% 79 29.78 1006.7
03 15:53 E 10 10.00 Fair CLR 82 33.1 17% 80 29.81 1007.9
03 14:53 NE 8 10.00 Fair CLR 81 28.9 15% 79 29.84 1008.8
03 13:53 N 6 10.00 Fair CLR 78.1 28.9 16% 77 29.87 1010.1
03 12:53 Vrbl 5 10.00 Fair CLR 79 28.9 79 51.1 16% 78 29.9 1011.0
03 11:53 Vrbl 7 10.00 Fair CLR 78.1 30 17% 77 29.93 1011.9
03 10:53 N 10 10.00 Fair CLR 73.9 32 21% 29.94 1012.2
03 09:53 W 5 10.00 Fair CLR 66 34 30% 29.95 1013.0
03 08:53 NW 10 10.00 Fair CLR 57 36 45% 29.96 1013.5
03 07:53 W 12 10.00 Fair CLR 53.1 35.1 51% 29.93 1012.3
03 06:53 W 12 10.00 Fair CLR 52 36 55 50 55% 29.92 1012.0
03 05:53 W 8 10.00 Fair CLR 53.1 36 52% 29.92 1012.0
03 04:53 W 13 10.00 Fair CLR 53.1 35.1 51% 29.94 1012.7
03 03:53 W 8 10.00 Fair CLR 52 35.1 53% 29.95 1013.2
03 02:53 SW 10 10.00 Fair CLR 53.1 35.1 51% 29.96 1013.6
03 01:53 W 8 10.00 Fair CLR 52 35.1 53% 29.98 1014.2
03 00:53 SW 7 10.00 Fair CLR 55 35.1 72 55 47% 29.98 1014.4
02 23:53 Calm 10.00 Fair CLR 55.9 35.1 46% 29.99 1014.8
02 22:53 S 9 10.00 Fair CLR 59 35.1 41% 30 1015.2
02 21:53 S 7 10.00 Fair CLR 57 35.1 44% 30 1015.5
02 20:53 S 7 10.00 Fair CLR 62.1 33.1 34% 30 1015.3
02 19:53 SW 7 10.00 Fair CLR 70 30.9 23% 30 1015.2
02 18:53 W 8 10.00 Fair CLR 72 30 73 62.1 21% 30.02 1016.1
02 17:53 W 12 G 18 10.00 Fair CLR 72 30 21% 30.03 1016.6
02 16:53 SW 12 G 21 10.00 Fair CLR 71.1 30.9 23% 30.06 1017.4
02 15:53 W 9 G 18 10.00 Fair CLR 70 30.9 23% 30.1 1018.8
02 14:53 Calm 10.00 Fair CLR 68 30.9 25% 30.12 1019.7
02 13:53 SW 8 G 17 10.00 Fair CLR 66 30.9 27% 30.14 1020.5
02 12:53 Vrbl 5 10.00 Fair CLR 62.1 30.9 63 32 31% 30.17 1021.6
02 11:53 S 6 10.00 Fair CLR 60.1 30 32% 30.2 1022.4
02 10:53 SW 6 10.00 Fair CLR 57 28.9 34% 30.21 1022.8
02 09:53 S 8 10.00 Fair CLR 52 30 43% 30.22 1023.4
02 08:53 S 3 10.00 Fair CLR 45 30.9 58% 30.22 1023.6
02 07:53 Calm 10.00 Fair CLR 39.9 33.1 77% 30.21 1023.3
02 06:53 Calm 10.00 Fair CLR 32 28.9 42.1 32 88% 30.2 1023.2
02 05:53 Calm 10.00 Fair CLR 35.1 30 82% 30.19 1022.6
02 04:53 Vrbl 3 10.00 Fair CLR 39 32 76% 30.19 1022.2
02 03:53 Calm 10.00 Mostly Cloudy BKN110 37 33.1 86% 30.18 1021.8
02 02:53 N 6 10.00 Fair CLR 37 32 82% 33 30.17 1021.4
02 01:53 Calm 10.00 A Few Clouds FEW110 39 33.1 79% 30.16 1021.0
02 00:53 Calm 10.00 Fair CLR 41 34 61 41 76% 30.15 1020.8
01 23:53 NE 3 10.00 Partly Cloudy SCT110 45 35.1 68% 30.15 1020.5
01 22:53 Calm 10.00 Overcast OVC110 48 39 71% 30.14 1020.4
01 21:53 E 5 10.00 Mostly Cloudy BKN100 BKN110 50 37 61% 49 30.12 1019.7
01 20:53 E 7 10.00 Fair CLR 50 35.1 57% 48 30.09 1018.9
Date Time (cdt) Wind (mph) Vis. (mi.) Weather Sky Cond. Air Dwpt Max. Min. Relative Humidity Wind Chill (°F) Heat Index (°F) altimeter (in) sea level (mb) 1 hr 3 hr 6 hr
6 hour
Temperature (ºF) Pressure Precipitation (in)